sensor_id;sensor_type;location;lat;lon;timestamp;P1;durP1;ratioP1;P2;durP2;ratioP2
60078;SDS011;45951;45.824;8.824;2023-07-24T00:01:01;15.43;;;11.90;;
60078;SDS011;45951;45.824;8.824;2023-07-24T00:02:41;16.88;;;11.60;;
60078;SDS011;45951;45.824;8.824;2023-07-24T00:04:21;15.73;;;11.38;;
60078;SDS011;45951;45.824;8.824;2023-07-24T00:06:02;13.27;;;10.93;;
60078;SDS011;45951;45.824;8.824;2023-07-24T00:07:42;14.65;;;10.70;;
60078;SDS011;45951;45.824;8.824;2023-07-24T00:09:22;15.13;;;11.57;;
60078;SDS011;45951;45.824;8.824;2023-07-24T00:11:06;14.10;;;10.75;;
60078;SDS011;45951;45.824;8.824;2023-07-24T00:12:47;13.52;;;10.82;;
60078;SDS011;45951;45.824;8.824;2023-07-24T00:14:27;15.23;;;11.40;;
60078;SDS011;45951;45.824;8.824;2023-07-24T00:16:08;15.13;;;10.88;;
60078;SDS011;45951;45.824;8.824;2023-07-24T00:17:48;16.17;;;11.32;;
60078;SDS011;45951;45.824;8.824;2023-07-24T00:19:29;15.35;;;11.45;;
60078;SDS011;45951;45.824;8.824;2023-07-24T00:21:09;14.13;;;11.32;;
60078;SDS011;45951;45.824;8.824;2023-07-24T00:22:50;14.35;;;10.50;;
60078;SDS011;45951;45.824;8.824;2023-07-24T00:24:31;15.48;;;11.50;;
60078;SDS011;45951;45.824;8.824;2023-07-24T00:26:11;14.75;;;11.02;;
60078;SDS011;45951;45.824;8.824;2023-07-24T00:27:52;13.13;;;10.55;;
60078;SDS011;45951;45.824;8.824;2023-07-24T00:29:32;14.23;;;10.98;;
60078;SDS011;45951;45.824;8.824;2023-07-24T00:31:12;15.55;;;11.60;;
60078;SDS011;45951;45.824;8.824;2023-07-24T00:32:53;15.57;;;10.70;;
60078;SDS011;45951;45.824;8.824;2023-07-24T00:34:33;15.70;;;11.20;;
60078;SDS011;45951;45.824;8.824;2023-07-24T00:36:13;15.63;;;11.57;;
60078;SDS011;45951;45.824;8.824;2023-07-24T00:37:53;14.88;;;11.15;;
60078;SDS011;45951;45.824;8.824;2023-07-24T00:39:34;15.55;;;10.95;;
60078;SDS011;45951;45.824;8.824;2023-07-24T00:41:14;15.93;;;10.63;;
60078;SDS011;45951;45.824;8.824;2023-07-24T00:42:54;14.27;;;10.98;;
60078;SDS011;45951;45.824;8.824;2023-07-24T00:44:35;14.25;;;10.82;;
60078;SDS011;45951;45.824;8.824;2023-07-24T00:46:16;14.35;;;11.10;;
60078;SDS011;45951;45.824;8.824;2023-07-24T00:47:57;14.85;;;12.02;;
60078;SDS011;45951;45.824;8.824;2023-07-24T00:49:38;13.60;;;11.07;;
60078;SDS011;45951;45.824;8.824;2023-07-24T00:51:19;17.25;;;10.98;;
60078;SDS011;45951;45.824;8.824;2023-07-24T00:52:59;15.38;;;11.20;;
60078;SDS011;45951;45.824;8.824;2023-07-24T00:54:40;14.13;;;10.68;;
60078;SDS011;45951;45.824;8.824;2023-07-24T00:56:21;14.80;;;11.40;;
60078;SDS011;45951;45.824;8.824;2023-07-24T00:58:02;14.82;;;11.25;;
60078;SDS011;45951;45.824;8.824;2023-07-24T00:59:43;14.85;;;11.65;;
60078;SDS011;45951;45.824;8.824;2023-07-24T01:01:24;14.30;;;11.18;;
60078;SDS011;45951;45.824;8.824;2023-07-24T01:03:05;14.38;;;11.63;;
60078;SDS011;45951;45.824;8.824;2023-07-24T01:04:45;15.50;;;11.23;;
60078;SDS011;45951;45.824;8.824;2023-07-24T01:06:25;17.38;;;10.98;;
60078;SDS011;45951;45.824;8.824;2023-07-24T01:08:06;14.95;;;11.27;;
60078;SDS011;45951;45.824;8.824;2023-07-24T01:09:46;16.73;;;11.68;;
60078;SDS011;45951;45.824;8.824;2023-07-24T01:11:28;13.68;;;10.38;;
60078;SDS011;45951;45.824;8.824;2023-07-24T01:13:15;14.35;;;10.60;;
60078;SDS011;45951;45.824;8.824;2023-07-24T01:15:20;15.93;;;11.43;;
60078;SDS011;45951;45.824;8.824;2023-07-24T01:17:24;14.52;;;11.25;;
60078;SDS011;45951;45.824;8.824;2023-07-24T01:21:28;14.48;;;11.20;;
60078;SDS011;45951;45.824;8.824;2023-07-24T01:23:20;15.57;;;10.88;;
60078;SDS011;45951;45.824;8.824;2023-07-24T01:25:10;14.07;;;11.10;;
60078;SDS011;45951;45.824;8.824;2023-07-24T01:26:54;14.15;;;10.63;;
60078;SDS011;45951;45.824;8.824;2023-07-24T01:28:34;13.40;;;10.13;;
60078;SDS011;45951;45.824;8.824;2023-07-24T01:30:16;14.52;;;11.23;;
60078;SDS011;45951;45.824;8.824;2023-07-24T01:31:59;13.95;;;9.93;;
60078;SDS011;45951;45.824;8.824;2023-07-24T01:33:39;15.48;;;11.13;;
60078;SDS011;45951;45.824;8.824;2023-07-24T01:35:20;13.43;;;10.63;;
60078;SDS011;45951;45.824;8.824;2023-07-24T01:37:00;13.00;;;10.63;;
60078;SDS011;45951;45.824;8.824;2023-07-24T01:38:41;14.20;;;11.05;;
60078;SDS011;45951;45.824;8.824;2023-07-24T01:40:22;15.25;;;10.80;;
60078;SDS011;45951;45.824;8.824;2023-07-24T01:42:02;14.27;;;11.13;;
60078;SDS011;45951;45.824;8.824;2023-07-24T01:43:43;15.25;;;11.57;;
60078;SDS011;45951;45.824;8.824;2023-07-24T01:45:23;14.63;;;11.15;;
60078;SDS011;45951;45.824;8.824;2023-07-24T01:47:04;15.57;;;11.65;;
60078;SDS011;45951;45.824;8.824;2023-07-24T01:48:44;13.20;;;11.30;;
60078;SDS011;45951;45.824;8.824;2023-07-24T01:50:25;14.25;;;11.07;;
60078;SDS011;45951;45.824;8.824;2023-07-24T01:52:06;16.40;;;11.95;;
60078;SDS011;45951;45.824;8.824;2023-07-24T01:53:46;14.15;;;11.32;;
60078;SDS011;45951;45.824;8.824;2023-07-24T01:55:26;15.60;;;11.55;;
60078;SDS011;45951;45.824;8.824;2023-07-24T01:57:07;15.13;;;11.13;;
60078;SDS011;45951;45.824;8.824;2023-07-24T01:58:47;13.55;;;11.32;;
60078;SDS011;45951;45.824;8.824;2023-07-24T02:00:27;14.45;;;10.77;;
60078;SDS011;45951;45.824;8.824;2023-07-24T02:02:08;16.05;;;11.43;;
60078;SDS011;45951;45.824;8.824;2023-07-24T02:03:48;14.65;;;11.27;;
60078;SDS011;45951;45.824;8.824;2023-07-24T02:05:28;16.10;;;11.43;;
60078;SDS011;45951;45.824;8.824;2023-07-24T02:07:09;14.35;;;11.65;;
60078;SDS011;45951;45.824;8.824;2023-07-24T02:08:50;14.40;;;10.77;;
60078;SDS011;45951;45.824;8.824;2023-07-24T02:10:31;14.98;;;10.85;;
60078;SDS011;45951;45.824;8.824;2023-07-24T02:12:11;14.48;;;11.30;;
60078;SDS011;45951;45.824;8.824;2023-07-24T02:13:52;16.92;;;11.75;;
60078;SDS011;45951;45.824;8.824;2023-07-24T02:15:32;14.55;;;10.73;;
60078;SDS011;45951;45.824;8.824;2023-07-24T02:17:13;16.10;;;11.40;;
60078;SDS011;45951;45.824;8.824;2023-07-24T02:18:53;13.77;;;11.05;;
60078;SDS011;45951;45.824;8.824;2023-07-24T02:20:33;15.60;;;11.13;;
60078;SDS011;45951;45.824;8.824;2023-07-24T02:22:14;14.00;;;11.55;;
60078;SDS011;45951;45.824;8.824;2023-07-24T02:23:55;16.77;;;12.60;;
60078;SDS011;45951;45.824;8.824;2023-07-24T02:25:35;14.32;;;11.65;;
60078;SDS011;45951;45.824;8.824;2023-07-24T02:27:26;14.90;;;11.95;;
60078;SDS011;45951;45.824;8.824;2023-07-24T02:29:07;14.40;;;12.05;;
60078;SDS011;45951;45.824;8.824;2023-07-24T02:30:47;15.32;;;12.07;;
60078;SDS011;45951;45.824;8.824;2023-07-24T02:32:28;15.30;;;11.20;;
60078;SDS011;45951;45.824;8.824;2023-07-24T02:34:08;15.02;;;11.10;;
60078;SDS011;45951;45.824;8.824;2023-07-24T02:35:49;15.73;;;11.75;;
60078;SDS011;45951;45.824;8.824;2023-07-24T02:37:31;16.23;;;11.85;;
60078;SDS011;45951;45.824;8.824;2023-07-24T02:39:11;15.90;;;11.35;;
60078;SDS011;45951;45.824;8.824;2023-07-24T02:40:51;17.27;;;11.00;;
60078;SDS011;45951;45.824;8.824;2023-07-24T02:42:32;15.23;;;11.48;;
60078;SDS011;45951;45.824;8.824;2023-07-24T02:44:12;15.15;;;11.55;;
60078;SDS011;45951;45.824;8.824;2023-07-24T02:45:52;16.88;;;10.93;;
60078;SDS011;45951;45.824;8.824;2023-07-24T02:47:33;14.45;;;11.13;;
60078;SDS011;45951;45.824;8.824;2023-07-24T02:49:13;16.10;;;11.38;;
60078;SDS011;45951;45.824;8.824;2023-07-24T02:50:53;14.25;;;10.77;;
60078;SDS011;45951;45.824;8.824;2023-07-24T02:52:33;13.95;;;11.48;;
60078;SDS011;45951;45.824;8.824;2023-07-24T02:54:14;15.60;;;11.52;;
60078;SDS011;45951;45.824;8.824;2023-07-24T02:55:54;15.77;;;10.80;;
60078;SDS011;45951;45.824;8.824;2023-07-24T02:57:34;16.13;;;11.35;;
60078;SDS011;45951;45.824;8.824;2023-07-24T02:59:15;13.85;;;12.02;;
60078;SDS011;45951;45.824;8.824;2023-07-24T03:01:02;15.05;;;11.05;;
60078;SDS011;45951;45.824;8.824;2023-07-24T03:04:24;16.20;;;11.13;;
60078;SDS011;45951;45.824;8.824;2023-07-24T03:06:04;15.32;;;11.82;;
60078;SDS011;45951;45.824;8.824;2023-07-24T03:07:44;16.50;;;11.27;;
60078;SDS011;45951;45.824;8.824;2023-07-24T03:09:25;14.98;;;11.55;;
60078;SDS011;45951;45.824;8.824;2023-07-24T03:11:05;16.60;;;11.13;;
60078;SDS011;45951;45.824;8.824;2023-07-24T03:12:46;16.50;;;11.20;;
60078;SDS011;45951;45.824;8.824;2023-07-24T03:14:26;13.95;;;11.18;;
60078;SDS011;45951;45.824;8.824;2023-07-24T03:16:06;14.63;;;11.05;;
60078;SDS011;45951;45.824;8.824;2023-07-24T03:17:47;15.38;;;11.23;;
60078;SDS011;45951;45.824;8.824;2023-07-24T03:19:27;15.43;;;11.00;;
60078;SDS011;45951;45.824;8.824;2023-07-24T03:21:07;14.43;;;11.45;;
60078;SDS011;45951;45.824;8.824;2023-07-24T03:22:48;14.45;;;11.00;;
60078;SDS011;45951;45.824;8.824;2023-07-24T03:24:29;15.45;;;10.80;;
60078;SDS011;45951;45.824;8.824;2023-07-24T03:26:09;15.90;;;11.05;;
60078;SDS011;45951;45.824;8.824;2023-07-24T03:27:49;14.75;;;11.77;;
60078;SDS011;45951;45.824;8.824;2023-07-24T03:29:30;14.80;;;11.35;;
60078;SDS011;45951;45.824;8.824;2023-07-24T03:31:10;13.60;;;10.90;;
60078;SDS011;45951;45.824;8.824;2023-07-24T03:32:50;14.00;;;11.38;;
60078;SDS011;45951;45.824;8.824;2023-07-24T03:34:31;13.75;;;11.20;;
60078;SDS011;45951;45.824;8.824;2023-07-24T03:36:11;14.55;;;11.50;;
60078;SDS011;45951;45.824;8.824;2023-07-24T03:37:51;16.25;;;11.85;;
60078;SDS011;45951;45.824;8.824;2023-07-24T03:39:32;15.90;;;11.88;;
60078;SDS011;45951;45.824;8.824;2023-07-24T03:41:12;15.65;;;12.55;;
60078;SDS011;45951;45.824;8.824;2023-07-24T03:42:52;14.27;;;10.93;;
60078;SDS011;45951;45.824;8.824;2023-07-24T03:44:32;14.30;;;11.32;;
60078;SDS011;45951;45.824;8.824;2023-07-24T03:46:13;15.48;;;11.88;;
60078;SDS011;45951;45.824;8.824;2023-07-24T03:47:53;14.93;;;11.52;;
60078;SDS011;45951;45.824;8.824;2023-07-24T03:49:33;15.10;;;11.02;;
60078;SDS011;45951;45.824;8.824;2023-07-24T03:51:14;13.60;;;10.63;;
60078;SDS011;45951;45.824;8.824;2023-07-24T03:52:54;17.02;;;11.30;;
60078;SDS011;45951;45.824;8.824;2023-07-24T03:54:34;15.93;;;10.77;;
60078;SDS011;45951;45.824;8.824;2023-07-24T03:56:15;13.93;;;10.52;;
60078;SDS011;45951;45.824;8.824;2023-07-24T03:57:55;14.73;;;11.32;;
60078;SDS011;45951;45.824;8.824;2023-07-24T03:59:36;14.75;;;11.32;;
60078;SDS011;45951;45.824;8.824;2023-07-24T04:01:16;15.07;;;11.13;;
60078;SDS011;45951;45.824;8.824;2023-07-24T04:02:56;14.05;;;11.15;;
60078;SDS011;45951;45.824;8.824;2023-07-24T04:04:37;15.27;;;11.07;;
60078;SDS011;45951;45.824;8.824;2023-07-24T04:06:17;15.25;;;10.75;;
60078;SDS011;45951;45.824;8.824;2023-07-24T04:07:58;17.92;;;10.80;;
60078;SDS011;45951;45.824;8.824;2023-07-24T04:09:38;14.27;;;11.15;;
60078;SDS011;45951;45.824;8.824;2023-07-24T04:11:18;14.77;;;11.48;;
60078;SDS011;45951;45.824;8.824;2023-07-24T04:12:59;14.93;;;11.20;;
60078;SDS011;45951;45.824;8.824;2023-07-24T04:14:39;15.38;;;11.13;;
60078;SDS011;45951;45.824;8.824;2023-07-24T04:16:19;15.18;;;10.95;;
60078;SDS011;45951;45.824;8.824;2023-07-24T04:18:00;15.88;;;10.70;;
60078;SDS011;45951;45.824;8.824;2023-07-24T04:19:40;15.93;;;11.00;;
60078;SDS011;45951;45.824;8.824;2023-07-24T04:21:20;15.93;;;11.95;;
60078;SDS011;45951;45.824;8.824;2023-07-24T04:23:01;15.00;;;11.45;;
60078;SDS011;45951;45.824;8.824;2023-07-24T04:24:41;16.95;;;11.15;;
60078;SDS011;45951;45.824;8.824;2023-07-24T04:26:21;15.48;;;11.85;;
60078;SDS011;45951;45.824;8.824;2023-07-24T04:28:02;14.20;;;10.45;;
60078;SDS011;45951;45.824;8.824;2023-07-24T04:29:42;14.15;;;11.32;;
60078;SDS011;45951;45.824;8.824;2023-07-24T04:31:22;14.00;;;11.10;;
60078;SDS011;45951;45.824;8.824;2023-07-24T04:33:03;14.65;;;10.85;;
60078;SDS011;45951;45.824;8.824;2023-07-24T04:34:43;15.48;;;11.77;;
60078;SDS011;45951;45.824;8.824;2023-07-24T04:36:23;15.18;;;11.98;;
60078;SDS011;45951;45.824;8.824;2023-07-24T04:38:03;15.20;;;10.57;;
60078;SDS011;45951;45.824;8.824;2023-07-24T04:39:44;15.95;;;11.43;;
60078;SDS011;45951;45.824;8.824;2023-07-24T04:41:24;16.38;;;11.73;;
60078;SDS011;45951;45.824;8.824;2023-07-24T04:43:05;16.30;;;11.85;;
60078;SDS011;45951;45.824;8.824;2023-07-24T04:44:45;15.75;;;11.32;;
60078;SDS011;45951;45.824;8.824;2023-07-24T04:46:25;15.35;;;11.82;;
60078;SDS011;45951;45.824;8.824;2023-07-24T04:48:05;13.68;;;11.57;;
60078;SDS011;45951;45.824;8.824;2023-07-24T04:49:46;14.18;;;11.38;;
60078;SDS011;45951;45.824;8.824;2023-07-24T04:51:26;14.45;;;11.57;;
60078;SDS011;45951;45.824;8.824;2023-07-24T04:53:06;13.77;;;11.25;;
60078;SDS011;45951;45.824;8.824;2023-07-24T04:54:47;14.77;;;11.73;;
60078;SDS011;45951;45.824;8.824;2023-07-24T04:56:27;13.98;;;11.20;;
60078;SDS011;45951;45.824;8.824;2023-07-24T04:58:07;15.15;;;11.48;;
60078;SDS011;45951;45.824;8.824;2023-07-24T04:59:48;17.25;;;12.43;;
60078;SDS011;45951;45.824;8.824;2023-07-24T05:01:28;14.82;;;11.35;;
60078;SDS011;45951;45.824;8.824;2023-07-24T05:03:08;14.90;;;11.68;;
60078;SDS011;45951;45.824;8.824;2023-07-24T05:04:51;16.23;;;11.93;;
60078;SDS011;45951;45.824;8.824;2023-07-24T05:06:31;15.82;;;12.23;;
60078;SDS011;45951;45.824;8.824;2023-07-24T05:08:11;16.17;;;11.75;;
60078;SDS011;45951;45.824;8.824;2023-07-24T05:09:52;15.25;;;12.07;;
60078;SDS011;45951;45.824;8.824;2023-07-24T05:11:32;15.95;;;11.48;;
60078;SDS011;45951;45.824;8.824;2023-07-24T05:13:12;15.35;;;11.70;;
60078;SDS011;45951;45.824;8.824;2023-07-24T05:14:53;15.82;;;11.35;;
60078;SDS011;45951;45.824;8.824;2023-07-24T05:16:33;14.95;;;10.88;;
60078;SDS011;45951;45.824;8.824;2023-07-24T05:18:13;14.55;;;11.23;;
60078;SDS011;45951;45.824;8.824;2023-07-24T05:19:53;19.38;;;11.65;;
60078;SDS011;45951;45.824;8.824;2023-07-24T05:21:34;15.68;;;11.27;;
60078;SDS011;45951;45.824;8.824;2023-07-24T05:23:14;14.40;;;11.23;;
60078;SDS011;45951;45.824;8.824;2023-07-24T05:24:54;14.88;;;10.80;;
60078;SDS011;45951;45.824;8.824;2023-07-24T05:26:35;14.63;;;11.05;;
60078;SDS011;45951;45.824;8.824;2023-07-24T05:28:15;17.42;;;12.30;;
60078;SDS011;45951;45.824;8.824;2023-07-24T05:29:55;16.60;;;11.32;;
60078;SDS011;45951;45.824;8.824;2023-07-24T05:31:36;16.90;;;11.77;;
60078;SDS011;45951;45.824;8.824;2023-07-24T05:33:16;20.08;;;12.00;;
60078;SDS011;45951;45.824;8.824;2023-07-24T05:34:56;14.80;;;12.23;;
60078;SDS011;45951;45.824;8.824;2023-07-24T05:36:37;14.38;;;11.90;;
60078;SDS011;45951;45.824;8.824;2023-07-24T05:38:17;15.85;;;11.20;;
60078;SDS011;45951;45.824;8.824;2023-07-24T05:39:57;14.50;;;11.50;;
60078;SDS011;45951;45.824;8.824;2023-07-24T05:41:38;13.98;;;11.85;;
60078;SDS011;45951;45.824;8.824;2023-07-24T05:43:18;15.50;;;11.32;;
60078;SDS011;45951;45.824;8.824;2023-07-24T05:44:58;15.35;;;11.73;;
60078;SDS011;45951;45.824;8.824;2023-07-24T05:46:38;16.10;;;12.02;;
60078;SDS011;45951;45.824;8.824;2023-07-24T05:48:19;14.93;;;11.63;;
60078;SDS011;45951;45.824;8.824;2023-07-24T05:49:59;14.40;;;11.35;;
60078;SDS011;45951;45.824;8.824;2023-07-24T05:51:40;16.13;;;11.52;;
60078;SDS011;45951;45.824;8.824;2023-07-24T05:53:20;15.43;;;11.30;;
60078;SDS011;45951;45.824;8.824;2023-07-24T05:55:00;15.32;;;11.50;;
60078;SDS011;45951;45.824;8.824;2023-07-24T05:56:41;16.30;;;12.52;;
60078;SDS011;45951;45.824;8.824;2023-07-24T05:58:21;15.75;;;11.32;;
60078;SDS011;45951;45.824;8.824;2023-07-24T06:00:04;14.18;;;11.52;;
60078;SDS011;45951;45.824;8.824;2023-07-24T06:01:45;14.43;;;11.23;;
60078;SDS011;45951;45.824;8.824;2023-07-24T06:03:25;14.82;;;11.07;;
60078;SDS011;45951;45.824;8.824;2023-07-24T06:05:06;15.90;;;11.40;;
60078;SDS011;45951;45.824;8.824;2023-07-24T06:06:46;16.02;;;12.05;;
60078;SDS011;45951;45.824;8.824;2023-07-24T06:08:27;14.20;;;11.40;;
60078;SDS011;45951;45.824;8.824;2023-07-24T06:10:07;14.43;;;11.40;;
60078;SDS011;45951;45.824;8.824;2023-07-24T06:11:48;13.25;;;10.38;;
60078;SDS011;45951;45.824;8.824;2023-07-24T06:13:28;14.13;;;10.98;;
60078;SDS011;45951;45.824;8.824;2023-07-24T06:15:08;14.60;;;11.27;;
60078;SDS011;45951;45.824;8.824;2023-07-24T06:16:49;16.05;;;10.90;;
60078;SDS011;45951;45.824;8.824;2023-07-24T06:18:29;16.45;;;11.60;;
60078;SDS011;45951;45.824;8.824;2023-07-24T06:20:10;15.40;;;10.93;;
60078;SDS011;45951;45.824;8.824;2023-07-24T06:21:50;13.60;;;10.90;;
60078;SDS011;45951;45.824;8.824;2023-07-24T06:23:30;19.65;;;11.52;;
60078;SDS011;45951;45.824;8.824;2023-07-24T06:25:10;14.40;;;11.07;;
60078;SDS011;45951;45.824;8.824;2023-07-24T06:26:51;16.55;;;12.00;;
60078;SDS011;45951;45.824;8.824;2023-07-24T06:28:31;14.90;;;11.23;;
60078;SDS011;45951;45.824;8.824;2023-07-24T06:30:13;16.88;;;11.55;;
60078;SDS011;45951;45.824;8.824;2023-07-24T06:31:53;13.85;;;10.48;;
60078;SDS011;45951;45.824;8.824;2023-07-24T06:33:33;14.60;;;11.02;;
60078;SDS011;45951;45.824;8.824;2023-07-24T06:35:14;15.88;;;12.13;;
60078;SDS011;45951;45.824;8.824;2023-07-24T06:36:54;15.82;;;11.65;;
60078;SDS011;45951;45.824;8.824;2023-07-24T06:38:34;17.67;;;12.00;;
60078;SDS011;45951;45.824;8.824;2023-07-24T06:40:15;17.20;;;11.48;;
60078;SDS011;45951;45.824;8.824;2023-07-24T06:41:55;15.98;;;11.75;;
60078;SDS011;45951;45.824;8.824;2023-07-24T06:43:35;17.80;;;12.30;;
60078;SDS011;45951;45.824;8.824;2023-07-24T06:45:16;15.05;;;11.90;;
60078;SDS011;45951;45.824;8.824;2023-07-24T06:46:56;16.20;;;11.93;;
60078;SDS011;45951;45.824;8.824;2023-07-24T06:48:36;15.65;;;11.52;;
60078;SDS011;45951;45.824;8.824;2023-07-24T06:50:17;16.98;;;12.60;;
60078;SDS011;45951;45.824;8.824;2023-07-24T06:51:57;17.08;;;13.02;;
60078;SDS011;45951;45.824;8.824;2023-07-24T06:53:37;18.00;;;13.15;;
60078;SDS011;45951;45.824;8.824;2023-07-24T06:55:17;16.60;;;12.40;;
60078;SDS011;45951;45.824;8.824;2023-07-24T06:56:58;15.75;;;12.55;;
60078;SDS011;45951;45.824;8.824;2023-07-24T06:58:38;16.65;;;11.60;;
60078;SDS011;45951;45.824;8.824;2023-07-24T07:00:18;20.08;;;13.35;;
60078;SDS011;45951;45.824;8.824;2023-07-24T07:01:59;17.70;;;13.02;;
60078;SDS011;45951;45.824;8.824;2023-07-24T07:03:39;18.17;;;13.52;;
60078;SDS011;45951;45.824;8.824;2023-07-24T07:05:19;16.88;;;13.00;;
60078;SDS011;45951;45.824;8.824;2023-07-24T07:07:00;17.65;;;13.38;;
60078;SDS011;45951;45.824;8.824;2023-07-24T07:08:40;15.30;;;11.75;;
60078;SDS011;45951;45.824;8.824;2023-07-24T07:10:20;17.15;;;12.48;;
60078;SDS011;45951;45.824;8.824;2023-07-24T07:12:01;18.35;;;12.50;;
60078;SDS011;45951;45.824;8.824;2023-07-24T07:13:41;15.63;;;11.90;;
60078;SDS011;45951;45.824;8.824;2023-07-24T07:15:21;18.02;;;12.48;;
60078;SDS011;45951;45.824;8.824;2023-07-24T07:17:01;16.92;;;11.93;;
60078;SDS011;45951;45.824;8.824;2023-07-24T07:18:42;16.02;;;12.25;;
60078;SDS011;45951;45.824;8.824;2023-07-24T07:20:22;15.68;;;12.23;;
60078;SDS011;45951;45.824;8.824;2023-07-24T07:22:03;16.15;;;12.63;;
60078;SDS011;45951;45.824;8.824;2023-07-24T07:23:43;16.17;;;11.77;;
60078;SDS011;45951;45.824;8.824;2023-07-24T07:25:23;15.18;;;12.38;;
60078;SDS011;45951;45.824;8.824;2023-07-24T07:27:04;16.08;;;12.10;;
60078;SDS011;45951;45.824;8.824;2023-07-24T07:28:44;17.45;;;12.15;;
60078;SDS011;45951;45.824;8.824;2023-07-24T07:30:24;16.70;;;13.00;;
60078;SDS011;45951;45.824;8.824;2023-07-24T07:32:05;15.88;;;12.07;;
60078;SDS011;45951;45.824;8.824;2023-07-24T07:33:46;19.23;;;13.10;;
60078;SDS011;45951;45.824;8.824;2023-07-24T07:35:26;16.33;;;12.88;;
60078;SDS011;45951;45.824;8.824;2023-07-24T07:37:06;17.70;;;13.20;;
60078;SDS011;45951;45.824;8.824;2023-07-24T07:38:47;16.65;;;12.80;;
60078;SDS011;45951;45.824;8.824;2023-07-24T07:40:27;17.05;;;13.68;;
60078;SDS011;45951;45.824;8.824;2023-07-24T07:42:07;16.58;;;13.48;;
60078;SDS011;45951;45.824;8.824;2023-07-24T07:43:48;18.80;;;13.35;;
60078;SDS011;45951;45.824;8.824;2023-07-24T07:45:28;16.83;;;12.43;;
60078;SDS011;45951;45.824;8.824;2023-07-24T07:47:09;15.80;;;12.77;;
60078;SDS011;45951;45.824;8.824;2023-07-24T07:48:49;19.70;;;12.48;;
60078;SDS011;45951;45.824;8.824;2023-07-24T07:50:29;17.50;;;12.18;;
60078;SDS011;45951;45.824;8.824;2023-07-24T07:52:09;17.23;;;13.18;;
60078;SDS011;45951;45.824;8.824;2023-07-24T07:53:50;17.52;;;13.38;;
60078;SDS011;45951;45.824;8.824;2023-07-24T07:55:30;17.67;;;13.40;;
60078;SDS011;45951;45.824;8.824;2023-07-24T07:57:10;19.38;;;15.55;;
60078;SDS011;45951;45.824;8.824;2023-07-24T07:58:51;16.40;;;12.85;;
60078;SDS011;45951;45.824;8.824;2023-07-24T08:00:31;15.70;;;13.20;;
60078;SDS011;45951;45.824;8.824;2023-07-24T08:02:11;17.25;;;13.25;;
60078;SDS011;45951;45.824;8.824;2023-07-24T08:03:52;16.83;;;12.65;;
60078;SDS011;45951;45.824;8.824;2023-07-24T08:05:32;17.38;;;13.00;;
60078;SDS011;45951;45.824;8.824;2023-07-24T08:07:12;17.05;;;13.27;;
60078;SDS011;45951;45.824;8.824;2023-07-24T08:08:53;19.05;;;14.00;;
60078;SDS011;45951;45.824;8.824;2023-07-24T08:10:33;18.48;;;12.93;;
60078;SDS011;45951;45.824;8.824;2023-07-24T08:12:17;17.60;;;13.68;;
60078;SDS011;45951;45.824;8.824;2023-07-24T08:13:58;18.00;;;14.15;;
60078;SDS011;45951;45.824;8.824;2023-07-24T08:15:38;20.33;;;14.43;;
60078;SDS011;45951;45.824;8.824;2023-07-24T08:17:18;18.67;;;14.38;;
60078;SDS011;45951;45.824;8.824;2023-07-24T08:18:59;17.52;;;13.70;;
60078;SDS011;45951;45.824;8.824;2023-07-24T08:20:40;16.60;;;12.50;;
60078;SDS011;45951;45.824;8.824;2023-07-24T08:22:20;18.23;;;13.70;;
60078;SDS011;45951;45.824;8.824;2023-07-24T08:24:02;20.30;;;14.82;;
60078;SDS011;45951;45.824;8.824;2023-07-24T08:25:52;19.23;;;14.98;;
60078;SDS011;45951;45.824;8.824;2023-07-24T08:27:34;17.00;;;13.15;;
60078;SDS011;45951;45.824;8.824;2023-07-24T08:29:14;19.20;;;14.32;;
60078;SDS011;45951;45.824;8.824;2023-07-24T08:30:57;17.60;;;13.95;;
60078;SDS011;45951;45.824;8.824;2023-07-24T08:32:39;17.95;;;13.98;;
60078;SDS011;45951;45.824;8.824;2023-07-24T08:34:19;19.48;;;13.60;;
60078;SDS011;45951;45.824;8.824;2023-07-24T08:36:00;19.13;;;14.45;;
60078;SDS011;45951;45.824;8.824;2023-07-24T08:37:47;17.73;;;13.80;;
60078;SDS011;45951;45.824;8.824;2023-07-24T08:39:27;18.85;;;13.88;;
60078;SDS011;45951;45.824;8.824;2023-07-24T08:41:08;16.50;;;12.55;;
60078;SDS011;45951;45.824;8.824;2023-07-24T08:42:50;16.75;;;13.02;;
60078;SDS011;45951;45.824;8.824;2023-07-24T08:44:30;17.92;;;13.95;;
60078;SDS011;45951;45.824;8.824;2023-07-24T08:46:11;17.20;;;13.57;;
60078;SDS011;45951;45.824;8.824;2023-07-24T08:47:51;17.60;;;13.32;;
60078;SDS011;45951;45.824;8.824;2023-07-24T08:49:32;16.30;;;13.00;;
60078;SDS011;45951;45.824;8.824;2023-07-24T08:51:12;17.10;;;14.05;;
60078;SDS011;45951;45.824;8.824;2023-07-24T08:52:54;18.75;;;13.70;;
60078;SDS011;45951;45.824;8.824;2023-07-24T08:54:36;19.35;;;13.60;;
60078;SDS011;45951;45.824;8.824;2023-07-24T08:56:17;17.02;;;13.13;;
60078;SDS011;45951;45.824;8.824;2023-07-24T08:57:58;18.10;;;13.65;;
60078;SDS011;45951;45.824;8.824;2023-07-24T08:59:38;16.73;;;13.18;;
60078;SDS011;45951;45.824;8.824;2023-07-24T09:01:18;18.40;;;13.43;;
60078;SDS011;45951;45.824;8.824;2023-07-24T09:02:59;18.15;;;13.68;;
60078;SDS011;45951;45.824;8.824;2023-07-24T09:04:39;17.20;;;13.10;;
60078;SDS011;45951;45.824;8.824;2023-07-24T09:06:19;18.20;;;14.60;;
60078;SDS011;45951;45.824;8.824;2023-07-24T09:08:00;17.55;;;13.90;;
60078;SDS011;45951;45.824;8.824;2023-07-24T09:09:40;18.50;;;13.60;;
60078;SDS011;45951;45.824;8.824;2023-07-24T09:11:20;18.20;;;13.57;;
60078;SDS011;45951;45.824;8.824;2023-07-24T09:13:01;20.63;;;14.80;;
60078;SDS011;45951;45.824;8.824;2023-07-24T09:14:43;18.52;;;14.18;;
60078;SDS011;45951;45.824;8.824;2023-07-24T09:16:25;19.67;;;14.07;;
60078;SDS011;45951;45.824;8.824;2023-07-24T09:18:06;20.40;;;14.23;;
60078;SDS011;45951;45.824;8.824;2023-07-24T09:19:46;19.40;;;13.65;;
60078;SDS011;45951;45.824;8.824;2023-07-24T09:21:35;19.77;;;15.23;;
60078;SDS011;45951;45.824;8.824;2023-07-24T09:23:16;20.10;;;15.25;;
60078;SDS011;45951;45.824;8.824;2023-07-24T09:25:06;22.15;;;15.27;;
60078;SDS011;45951;45.824;8.824;2023-07-24T09:26:47;20.25;;;14.88;;
60078;SDS011;45951;45.824;8.824;2023-07-24T09:28:31;19.35;;;15.52;;
60078;SDS011;45951;45.824;8.824;2023-07-24T09:30:13;21.88;;;16.98;;
60078;SDS011;45951;45.824;8.824;2023-07-24T09:31:55;23.20;;;16.92;;
60078;SDS011;45951;45.824;8.824;2023-07-24T09:33:44;21.20;;;16.83;;
60078;SDS011;45951;45.824;8.824;2023-07-24T09:36:02;20.85;;;15.38;;
60078;SDS011;45951;45.824;8.824;2023-07-24T09:38:39;20.05;;;14.40;;
60078;SDS011;45951;45.824;8.824;2023-07-24T09:41:12;18.83;;;14.75;;
60078;SDS011;45951;45.824;8.824;2023-07-24T09:43:45;19.92;;;14.70;;
60078;SDS011;45951;45.824;8.824;2023-07-24T09:46:14;19.50;;;15.10;;
60078;SDS011;45951;45.824;8.824;2023-07-24T09:48:47;21.65;;;15.88;;
60078;SDS011;45951;45.824;8.824;2023-07-24T09:51:20;23.95;;;17.02;;
60078;SDS011;45951;45.824;8.824;2023-07-24T09:53:07;21.13;;;16.60;;
60078;SDS011;45951;45.824;8.824;2023-07-24T09:55:19;27.10;;;17.67;;
60078;SDS011;45951;45.824;8.824;2023-07-24T09:57:54;22.77;;;16.75;;
60078;SDS011;45951;45.824;8.824;2023-07-24T10:00:28;20.52;;;14.55;;
60078;SDS011;45951;45.824;8.824;2023-07-24T10:03:03;20.65;;;15.35;;